FCESK KSQL-KSQL
Flight info
| Callsign | FCESK |
|---|---|
| Flight time | 0h 5m |
| Altitude | 1000 |
| Route | VFR PATTERN AT KSQL |
| Aircraft | C172/L-V/N |
Departure
| Time | 2026-04-25 22:13 |
|---|---|
| Airport | San Carlos Airport (KSQL) |
Arrival
| Time | 2026-04-25 22:18 |
|---|---|
| Airport | San Carlos Airport (KSQL) |
| Time | Latitude | Longitude | Altitude | Speed | Heading |
|---|---|---|---|---|---|
| 2026-04-25 21:58 | 37.51486 | -122.25158 | 4 ft | 0 kts | 140° |
| 2026-04-25 22:09 | 37.51485 | -122.25157 | 4 ft | 2 kts | 143° |
| 2026-04-25 22:09 | 37.51448 | -122.25150 | 3 ft | 8 kts | 162° |
| 2026-04-25 22:09 | 37.51397 | -122.25096 | 4 ft | 10 kts | 137° |
| 2026-04-25 22:09 | 37.51346 | -122.25037 | 6 ft | 9 kts | 139° |
| 2026-04-25 22:10 | 37.51298 | -122.24983 | 7 ft | 9 kts | 137° |
| 2026-04-25 22:10 | 37.51251 | -122.24930 | 7 ft | 9 kts | 140° |
| 2026-04-25 22:10 | 37.51191 | -122.24884 | 7 ft | 11 kts | 158° |
| 2026-04-25 22:10 | 37.51134 | -122.24831 | 8 ft | 9 kts | 140° |
| 2026-04-25 22:11 | 37.51086 | -122.24779 | 8 ft | 9 kts | 135° |
| 2026-04-25 22:11 | 37.51035 | -122.24718 | 6 ft | 11 kts | 138° |
| 2026-04-25 22:11 | 37.50991 | -122.24669 | 5 ft | 6 kts | 147° |
| 2026-04-25 22:11 | 37.50983 | -122.24663 | 5 ft | 6 kts | 157° |
| 2026-04-25 22:12 | 37.50933 | -122.24664 | 4 ft | 5 kts | 245° |
| 2026-04-25 22:12 | 37.50955 | -122.24693 | 4 ft | 6 kts | 313° |
| 2026-04-25 22:12 | 37.51075 | -122.24835 | 8 ft | 49 kts | 319° |
| 2026-04-25 22:12 | 37.51177 | -122.24947 | 7 ft | 65 kts | 314° |
| 2026-04-25 22:13 | 37.51873 | -122.25703 | 253 ft | 84 kts | 313° |
| 2026-04-25 22:13 | 37.52308 | -122.26195 | 541 ft | 87 kts | 308° |
| 2026-04-25 22:13 | 37.52888 | -122.26514 | 744 ft | 103 kts | 359° |
| 2026-04-25 22:13 | 37.53522 | -122.26059 | 908 ft | 115 kts | 40° |
| 2026-04-25 22:14 | 37.54129 | -122.25384 | 873 ft | 117 kts | 39° |
| 2026-04-25 22:14 | 37.54484 | -122.24554 | 921 ft | 113 kts | 97° |
| 2026-04-25 22:14 | 37.54178 | -122.23672 | 866 ft | 109 kts | 125° |
| 2026-04-25 22:14 | 37.53777 | -122.22870 | 830 ft | 109 kts | 128° |
| 2026-04-25 22:15 | 37.53300 | -122.22182 | 844 ft | 104 kts | 139° |
| 2026-04-25 22:15 | 37.52789 | -122.21535 | 860 ft | 104 kts | 142° |
| 2026-04-25 22:15 | 37.52252 | -122.20923 | 864 ft | 104 kts | 144° |
| 2026-04-25 22:16 | 37.51127 | -122.19722 | 809 ft | 105 kts | 150° |
| 2026-04-25 22:16 | 37.50724 | -122.19398 | 769 ft | 102 kts | 169° |
| 2026-04-25 22:16 | 37.50103 | -122.19610 | 743 ft | 93 kts | 232° |
| 2026-04-25 22:16 | 37.49703 | -122.20282 | 620 ft | 99 kts | 236° |
| 2026-04-25 22:17 | 37.49336 | -122.21013 | 543 ft | 96 kts | 251° |
| 2026-04-25 22:17 | 37.49304 | -122.21835 | 471 ft | 95 kts | 278° |
| 2026-04-25 22:17 | 37.49469 | -122.22630 | 397 ft | 94 kts | 289° |
| 2026-04-25 22:17 | 37.49968 | -122.23549 | 262 ft | 98 kts | 314° |
| 2026-04-25 22:18 | 37.50301 | -122.23929 | 162 ft | 89 kts | 308° |
| 2026-04-25 22:18 | 37.50711 | -122.24411 | 59 ft | 73 kts | 311° |
| 2026-04-25 22:18 | 37.51017 | -122.24763 | 7 ft | 46 kts | 315° |
| 2026-04-25 22:18 | 37.51268 | -122.25033 | 36 ft | 57 kts | 317° |
| 2026-04-25 22:19 | 37.51618 | -122.25401 | 117 ft | 72 kts | 306° |
| 2026-04-25 22:19 | 37.51992 | -122.25857 | 288 ft | 76 kts | 305° |
| 2026-04-25 22:19 | 37.52394 | -122.26397 | 441 ft | 92 kts | 317° |
| 2026-04-25 22:19 | 37.53085 | -122.26508 | 579 ft | 112 kts | 10° |
| 2026-04-25 22:20 | 37.53776 | -122.25991 | 727 ft | 117 kts | 38° |
| 2026-04-25 22:20 | 37.54325 | -122.25231 | 868 ft | 121 kts | 48° |
| 2026-04-25 22:20 | 37.54789 | -122.24393 | 897 ft | 112 kts | 76° |
| 2026-04-25 22:20 | 37.54626 | -122.23476 | 864 ft | 110 kts | 137° |
| 2026-04-25 22:21 | 37.54079 | -122.22828 | 844 ft | 105 kts | 142° |
| 2026-04-25 22:21 | 37.53523 | -122.22194 | 761 ft | 110 kts | 144° |
| 2026-04-25 22:21 | 37.52970 | -122.21550 | 780 ft | 107 kts | 147° |
| 2026-04-25 22:21 | 37.52420 | -122.20918 | 831 ft | 109 kts | 147° |
| 2026-04-25 22:22 | 37.51842 | -122.20295 | 806 ft | 110 kts | 148° |
| 2026-04-25 22:22 | 37.51256 | -122.19685 | 830 ft | 108 kts | 150° |
| 2026-04-25 22:22 | 37.50599 | -122.19475 | 772 ft | 96 kts | 201° |
| 2026-04-25 22:22 | 37.50077 | -122.19940 | 712 ft | 92 kts | 229° |
| 2026-04-25 22:23 | 37.49667 | -122.20602 | 539 ft | 99 kts | 237° |
| 2026-04-25 22:23 | 37.49322 | -122.21308 | 544 ft | 92 kts | 243° |
| 2026-04-25 22:23 | 37.49110 | -122.22060 | 507 ft | 94 kts | 283° |
| 2026-04-25 22:23 | 37.49406 | -122.22834 | 407 ft | 103 kts | 304° |
| 2026-04-25 22:24 | 37.49898 | -122.23477 | 286 ft | 98 kts | 314° |
| 2026-04-25 22:24 | 37.50361 | -122.24005 | 165 ft | 83 kts | 311° |
| 2026-04-25 22:24 | 37.50790 | -122.24501 | 57 ft | 82 kts | 312° |
| 2026-04-25 22:24 | 37.51183 | -122.24951 | 6 ft | 71 kts | 310° |
| 2026-04-25 22:25 | 37.51585 | -122.25405 | 100 ft | 81 kts | 310° |
| 2026-04-25 22:25 | 37.51984 | -122.25879 | 342 ft | 74 kts | 303° |
| 2026-04-25 22:25 | 37.52447 | -122.26190 | 546 ft | 88 kts | 357° |
| 2026-04-25 22:25 | 37.52984 | -122.25781 | 680 ft | 100 kts | 44° |
| 2026-04-25 22:26 | 37.53452 | -122.25062 | 755 ft | 109 kts | 52° |
| 2026-04-25 22:26 | 37.53774 | -122.24231 | 973 ft | 101 kts | 89° |
| 2026-04-25 22:26 | 37.53533 | -122.23379 | 922 ft | 110 kts | 142° |
| 2026-04-25 22:26 | 37.53008 | -122.22614 | 873 ft | 118 kts | 139° |
| 2026-04-25 22:27 | 37.52460 | -122.21855 | 875 ft | 113 kts | 139° |
| 2026-04-25 22:27 | 37.51896 | -122.21176 | 782 ft | 115 kts | 143° |
| 2026-04-25 22:27 | 37.51304 | -122.20532 | 783 ft | 108 kts | 149° |
| 2026-04-25 22:27 | 37.50700 | -122.19958 | 700 ft | 110 kts | 151° |
| 2026-04-25 22:28 | 37.50067 | -122.19446 | 706 ft | 100 kts | 171° |
| 2026-04-25 22:28 | 37.49485 | -122.19635 | 591 ft | 88 kts | 230° |
| 2026-04-25 22:28 | 37.49122 | -122.20265 | 494 ft | 90 kts | 243° |
| 2026-04-25 22:28 | 37.48869 | -122.20973 | 429 ft | 91 kts | 262° |
| 2026-04-25 22:29 | 37.48857 | -122.21778 | 392 ft | 91 kts | 278° |
| 2026-04-25 22:29 | 37.49099 | -122.22483 | 311 ft | 90 kts | 302° |
| 2026-04-25 22:29 | 37.49555 | -122.23055 | 322 ft | 96 kts | 314° |
| 2026-04-25 22:30 | 37.50542 | -122.24213 | 104 ft | 85 kts | 310° |
| 2026-04-25 22:30 | 37.50935 | -122.24661 | 11 ft | 67 kts | 311° |
| 2026-04-25 22:30 | 37.51209 | -122.24998 | 6 ft | 44 kts | 323° |
| 2026-04-25 22:30 | 37.51337 | -122.25133 | 3 ft | 29 kts | 323° |
| 2026-04-25 22:31 | 37.51464 | -122.25226 | 3 ft | 10 kts | 45° |
| 2026-04-25 22:31 | 37.51495 | -122.25172 | 4 ft | 5 kts | 80° |
| 2026-04-25 22:31 | 37.51489 | -122.25160 | 4 ft | 0 kts | 138° |
| 2026-04-25 22:36 | 37.51488 | -122.25156 | 17 ft | 1 kts | 175° |
| 2026-04-25 22:36 | 37.51486 | -122.25157 | 5 ft | 0 kts | 198° |
| 2026-04-25 22:37 | 37.51485 | -122.25157 | 4 ft | 0 kts | 200° |